Time;durP1;ratioP1;P1;durP2;ratioP2;P2;SDS_P1;SDS_P2;PMS_P1;PMS_P2;Temp;Humidity;BMP_temperature;BMP_pressure;BME280_temperature;BME280_humidity;BME280_pressure;Samples;Min_cycle;Max_cycle;Signal;HPM_P1;HPM_P2
2022/04/25 00:02:10;;;;;;;;;;;;;;;13.78;100.00;96657.09;5060134;28;19989;-65
2022/04/25 00:04:37;;;;;;;;;;;;;;;13.80;100.00;96658.34;5058658;28;19966;-65
2022/04/25 00:07:05;;;;;;;;;;;;;;;13.84;100.00;96659.31;5059064;28;19925;-66
2022/04/25 00:09:31;;;;;;;;;;;;;;;13.81;100.00;96659.94;5062103;28;19932;-66
2022/04/25 00:11:57;;;;;;;;;;;;;;;13.73;100.00;96658.03;5060146;28;19925;-66
2022/04/25 00:14:24;;;;;;;;;;;;;;;13.53;100.00;96658.63;5050530;28;19925;-66
2022/04/25 00:16:55;;;;;;;;;;;;;;;13.65;100.00;96666.09;5058331;28;20782;-65
2022/04/25 00:19:22;;;;;;;;;;;;;;;13.73;100.00;96662.63;5061591;28;19930;-65
2022/04/25 00:21:48;;;;;;;;;;;;;;;13.70;100.00;96664.03;5061750;28;19931;-66
2022/04/25 00:24:16;;;;;;;;;;;;;;;13.71;100.00;96662.16;5059421;28;19976;-65
2022/04/25 00:26:42;;;;;;;;;;;;;;;13.74;100.00;96664.97;5058260;28;20004;-65
2022/04/25 00:29:08;;;;;;;;;;;;;;;13.84;100.00;96663.88;5059498;28;19985;-65
2022/04/25 00:31:35;;;;;;;;;;;;;;;13.68;100.00;96666.22;5061784;28;19920;-66
2022/04/25 00:34:01;;;;;;;;;;;;;;;13.69;100.00;96667.00;5061148;28;19967;-66
2022/04/25 00:36:27;;;;;;;;;;;;;;;13.72;100.00;96664.50;5058344;28;19926;-65
2022/04/25 00:38:54;;;;;;;;;;;;;;;13.75;100.00;96663.09;5058145;28;19996;-66
2022/04/25 00:41:21;;;;;;;;;;;;;;;13.79;100.00;96664.03;5061158;28;20015;-66
2022/04/25 00:43:48;;;;;;;;;;;;;;;13.71;100.00;96664.84;5059728;28;20007;-66
2022/04/25 00:46:21;;;;;;;;;;;;;;;13.70;100.00;96672.09;5059233;28;19925;-65
2022/04/25 00:48:47;;;;;;;;;;;;;;;13.71;100.00;96672.88;5058032;28;19929;-65
2022/04/25 00:51:14;;;;;;;;;;;;;;;13.71;100.00;96664.84;5059954;28;19925;-66
2022/04/25 00:53:40;;;;;;;;;;;;;;;13.78;100.00;96665.13;5061295;28;19925;-65
2022/04/25 00:56:08;;;;;;;;;;;;;;;13.78;100.00;96671.28;5059944;28;19925;-65
2022/04/25 00:58:36;;;;;;;;;;;;;;;13.80;100.00;96682.50;5057597;28;19931;-66
2022/04/25 01:01:03;;;;;;;;;;;;;;;13.85;100.00;96679.69;5058286;28;19945;-65
2022/04/25 01:03:29;;;;;;;;;;;;;;;13.71;100.00;96670.97;5061160;28;19971;-65
2022/04/25 01:05:55;;;;;;;;;;;;;;;13.66;100.00;96670.31;5061055;28;19948;-65
2022/04/25 01:08:22;;;;;;;;;;;;;;;13.55;100.00;96677.88;5057647;28;19925;-65
2022/04/25 01:10:48;;;;;;;;;;;;;;;13.64;100.00;96672.53;5057645;28;19925;-65
2022/04/25 01:13:15;;;;;;;;;;;;;;;13.66;100.00;96675.69;5063846;28;19980;-66
2022/04/25 01:15:42;;;;;;;;;;;;;;;13.60;100.00;96671.56;5057545;28;19925;-65
2022/04/25 01:18:09;;;;;;;;;;;;;;;13.51;100.00;96668.88;5058618;28;19988;-65
2022/04/25 01:20:35;;;;;;;;;;;;;;;13.49;100.00;96673.78;5061086;27;20439;-65
2022/04/25 01:28:32;;;;;;;;;;;;;;;13.57;100.00;96677.56;5050216;28;19925;-65
2022/04/25 01:30:58;;;;;;;;;;;;;;;13.55;100.00;96677.88;5057635;28;20473;-65
2022/04/25 01:33:25;;;;;;;;;;;;;;;13.40;100.00;96681.00;5060786;27;19956;-65
2022/04/25 01:35:51;;;;;;;;;;;;;;;13.40;100.00;96675.63;5059569;28;19925;-66
2022/04/25 01:38:19;;;;;;;;;;;;;;;13.49;100.00;96689.84;5057752;28;19950;-65
2022/04/25 01:40:45;;;;;;;;;;;;;;;13.49;100.00;96682.56;5057184;28;19931;-65
2022/04/25 01:43:11;;;;;;;;;;;;;;;13.51;100.00;96675.03;5056815;28;19936;-65
2022/04/25 01:45:40;;;;;;;;;;;;;;;13.45;100.00;96670.91;5060540;28;19928;-66
2022/04/25 01:48:07;;;;;;;;;;;;;;;13.41;100.00;96685.25;5059272;28;19925;-66
2022/04/25 01:50:33;;;;;;;;;;;;;;;13.52;100.00;96681.19;5057137;28;20036;-66
2022/04/25 01:52:59;;;;;;;;;;;;;;;13.51;100.00;96685.75;5057040;28;19931;-65
2022/04/25 01:55:27;;;;;;;;;;;;;;;13.31;100.00;96683.63;5060600;28;19960;-65
2022/04/25 01:57:54;;;;;;;;;;;;;;;13.42;100.00;96678.78;5060338;28;19964;-65
2022/04/25 02:00:21;;;;;;;;;;;;;;;13.30;100.00;96681.25;5057145;28;19960;-66
2022/04/25 02:02:47;;;;;;;;;;;;;;;13.25;100.00;96681.38;5056547;28;19932;-66
2022/04/25 02:05:13;;;;;;;;;;;;;;;13.31;100.00;96678.25;5058765;28;19932;-67
2022/04/25 02:07:40;;;;;;;;;;;;;;;13.39;100.00;96679.41;5058526;27;20016;-66
2022/04/25 02:10:06;;;;;;;;;;;;;;;13.42;100.00;96684.16;5059102;28;19926;-65
2022/04/25 02:12:34;;;;;;;;;;;;;;;13.36;100.00;96688.88;5059679;28;19924;-67
2022/04/25 02:15:01;;;;;;;;;;;;;;;13.37;100.00;96695.00;5059668;28;19960;-66
2022/04/25 02:17:27;;;;;;;;;;;;;;;13.39;100.00;96688.25;5056524;28;19932;-65
2022/04/25 02:19:53;;;;;;;;;;;;;;;13.35;100.00;96697.22;5055668;28;19964;-65
2022/04/25 02:22:20;;;;;;;;;;;;;;;13.19;100.00;96702.19;5059362;28;19992;-65
2022/04/25 02:24:46;;;;;;;;;;;;;;;13.19;100.00;96696.03;5059871;28;19967;-66
2022/04/25 02:27:12;;;;;;;;;;;;;;;13.19;100.00;96702.19;5057689;28;19928;-65
2022/04/25 02:29:40;;;;;;;;;;;;;;;13.26;100.00;96696.38;5056376;28;19932;-66
2022/04/25 02:32:07;;;;;;;;;;;;;;;13.36;100.00;96696.13;5057651;28;19925;-66
2022/04/25 02:34:34;;;;;;;;;;;;;;;13.35;100.00;96708.72;5059754;28;19929;-66
2022/04/25 02:37:00;;;;;;;;;;;;;;;13.43;100.00;96707.19;5059321;28;20016;-65
2022/04/25 02:39:26;;;;;;;;;;;;;;;13.44;100.00;96701.50;5056285;28;19926;-65
2022/04/25 02:41:53;;;;;;;;;;;;;;;13.41;100.00;96710.16;5056175;28;19981;-65
2022/04/25 02:44:20;;;;;;;;;;;;;;;13.38;100.00;96710.00;5056409;28;19929;-66
2022/04/25 02:46:48;;;;;;;;;;;;;;;13.32;100.00;96712.03;5056103;28;20013;-65
2022/04/25 02:49:14;;;;;;;;;;;;;;;13.32;100.00;96708.56;5058343;28;19925;-65
2022/04/25 02:51:40;;;;;;;;;;;;;;;13.24;100.00;96714.69;5059576;28;19925;-66
2022/04/25 02:54:07;;;;;;;;;;;;;;;13.32;100.00;96721.97;5058210;28;19925;-65
2022/04/25 02:56:33;;;;;;;;;;;;;;;13.34;100.00;96712.50;5056238;28;19946;-65
2022/04/25 02:58:59;;;;;;;;;;;;;;;13.45;100.00;96719.19;5056088;28;20486;-65
2022/04/25 03:01:26;;;;;;;;;;;;;;;13.43;100.00;96723.28;5059136;28;20036;-65
2022/04/25 03:03:53;;;;;;;;;;;;;;;13.46;100.00;96728.78;5059387;28;19971;-66
2022/04/25 03:06:20;;;;;;;;;;;;;;;13.53;100.00;96731.03;5056206;28;19928;-65
2022/04/25 03:08:46;;;;;;;;;;;;;;;13.55;100.00;96736.09;5055554;28;19988;-65
2022/04/25 03:11:13;;;;;;;;;;;;;;;13.50;100.00;96735.13;5057637;28;20361;-65
2022/04/25 03:13:39;;;;;;;;;;;;;;;13.53;100.00;96736.41;5060240;28;20008;-65
2022/04/25 03:16:06;;;;;;;;;;;;;;;13.42;100.00;96738.56;5056668;28;19946;-65
2022/04/25 03:18:33;;;;;;;;;;;;;;;13.32;100.00;96732.69;5059032;28;20010;-66
2022/04/25 03:21:01;;;;;;;;;;;;;;;13.31;100.00;96731.09;5058307;28;19932;-65
2022/04/25 03:23:28;;;;;;;;;;;;;;;13.29;100.00;96744.03;5055641;28;20597;-65
2022/04/25 03:25:54;;;;;;;;;;;;;;;13.23;100.00;96746.06;5055503;28;19985;-65
2022/04/25 03:28:20;;;;;;;;;;;;;;;13.29;100.00;96744.03;5058426;28;19935;-65
2022/04/25 03:30:47;;;;;;;;;;;;;;;13.29;100.00;96733.31;5059059;28;19927;-64
2022/04/25 03:33:15;;;;;;;;;;;;;;;13.35;100.00;96740.09;5056668;28;19935;-65
2022/04/25 03:35:42;;;;;;;;;;;;;;;13.34;100.00;96751.91;5055636;28;19921;-64
2022/04/25 03:38:10;;;;;;;;;;;;;;;13.31;100.00;96745.28;5056280;28;19996;-64
2022/04/25 03:40:37;;;;;;;;;;;;;;;13.34;100.00;96747.34;5059111;28;19929;-65
2022/04/25 03:43:06;;;;;;;;;;;;;;;13.32;100.00;96748.78;5050449;28;19936;-65
2022/04/25 03:45:33;;;;;;;;;;;;;;;13.24;100.00;96755.69;5058906;28;19920;-65
2022/04/25 03:48:00;;;;;;;;;;;;;;;13.28;100.00;96748.59;5058501;28;20015;-65
2022/04/25 03:50:26;;;;;;;;;;;;;;;13.23;100.00;96747.94;5055442;28;19984;-66
2022/04/25 03:52:53;;;;;;;;;;;;;;;13.21;100.00;96752.81;5055489;28;19921;-65
2022/04/25 03:58:05;;;;;;;;;;;;;;;13.27;100.00;96763.13;5057556;28;19986;-66
2022/04/25 04:00:32;;;;;;;;;;;;;;;13.18;100.00;96761.47;5055218;28;19925;-66
2022/04/25 04:02:59;;;;;;;;;;;;;;;13.12;100.00;96760.03;5054727;28;19956;-65
2022/04/25 04:05:25;;;;;;;;;;;;;;;13.17;100.00;96763.38;5057561;28;19929;-65
2022/04/25 04:07:53;;;;;;;;;;;;;;;12.94;100.00;96769.78;5058570;28;19925;-65
2022/04/25 04:10:21;;;;;;;;;;;;;;;13.13;100.00;96766.94;5055602;28;19936;-65
2022/04/25 04:12:47;;;;;;;;;;;;;;;13.00;100.00;96777.41;5059735;28;19921;-66
2022/04/25 04:15:14;;;;;;;;;;;;;;;12.72;100.00;96777.84;5056421;28;19989;-65
2022/04/25 04:17:41;;;;;;;;;;;;;;;12.79;100.00;96779.00;5054898;28;20024;-66
2022/04/25 04:20:08;;;;;;;;;;;;;;;12.91;100.00;96786.50;5055879;28;19925;-66
2022/04/25 04:22:36;;;;;;;;;;;;;;;13.00;100.00;96780.09;5058312;28;19992;-65
2022/04/25 04:25:03;;;;;;;;;;;;;;;13.03;100.00;96783.28;5057888;28;19936;-65
2022/04/25 04:27:31;;;;;;;;;;;;;;;12.99;100.00;96797.28;5054675;28;19925;-65
2022/04/25 04:29:58;;;;;;;;;;;;;;;13.00;100.00;96795.38;5053958;28;19921;-66
2022/04/25 04:32:26;;;;;;;;;;;;;;;13.05;100.00;96807.88;5049844;28;19935;-65
2022/04/25 04:34:52;;;;;;;;;;;;;;;12.99;100.00;96810.69;5058418;28;20577;-65
2022/04/25 04:37:18;;;;;;;;;;;;;;;13.06;100.00;96817.50;5060621;28;19925;-65
2022/04/25 04:39:44;;;;;;;;;;;;;;;13.06;100.00;96820.94;5061546;28;19921;-65
2022/04/25 04:42:11;;;;;;;;;;;;;;;13.00;100.00;96820.28;5057849;28;19925;-65
2022/04/25 04:44:41;;;;;;;;;;;;;;;13.01;100.00;96829.13;5057919;28;19934;-65
2022/04/25 04:47:07;;;;;;;;;;;;;;;12.75;100.00;96836.94;5058891;28;19925;-65
2022/04/25 04:49:34;;;;;;;;;;;;;;;11.82;100.00;96834.91;5061408;28;20213;-65
2022/04/25 04:52:00;;;;;;;;;;;;;;;11.71;100.00;96855.69;5060863;28;19925;-65
2022/04/25 04:54:27;;;;;;;;;;;;;;;11.75;100.00;96850.56;5058139;28;19925;-65
2022/04/25 04:56:53;;;;;;;;;;;;;;;11.47;100.00;96862.25;5057953;28;19925;-66
2022/04/25 04:59:19;;;;;;;;;;;;;;;11.34;100.00;96858.47;5060485;28;20039;-65
2022/04/25 05:01:47;;;;;;;;;;;;;;;11.33;100.00;96875.56;5060593;28;19925;-66
2022/04/25 05:04:13;;;;;;;;;;;;;;;10.80;100.00;96872.38;5059041;28;20008;-66
2022/04/25 05:06:39;;;;;;;;;;;;;;;11.04;100.00;96878.47;5057532;28;19929;-65
2022/04/25 05:09:06;;;;;;;;;;;;;;;11.23;100.00;96881.88;5058422;28;19964;-65
2022/04/25 05:11:32;;;;;;;;;;;;;;;11.34;100.00;96885.97;5060966;28;19995;-65
2022/04/25 05:14:04;;;;;;;;;;;;;;;11.32;100.00;96892.72;5059005;28;19959;-66
2022/04/25 05:16:31;;;;;;;;;;;;;;;11.44;100.00;96890.38;5050140;28;19925;-65
2022/04/25 05:18:58;;;;;;;;;;;;;;;11.37;100.00;96908.66;5057292;28;19988;-65
2022/04/25 05:21:25;;;;;;;;;;;;;;;11.60;100.00;96907.75;5049339;28;19976;-65
2022/04/25 05:23:52;;;;;;;;;;;;;;;11.71;100.00;96906.50;5057398;28;19960;-64
2022/04/25 05:26:18;;;;;;;;;;;;;;;11.68;100.00;96912.41;5059924;28;19986;-65
2022/04/25 05:28:44;;;;;;;;;;;;;;;11.33;100.00;96918.34;5060660;28;19979;-65
2022/04/25 05:31:11;;;;;;;;;;;;;;;11.11;100.00;96932.28;5058928;28;19935;-66
2022/04/25 05:33:38;;;;;;;;;;;;;;;11.09;100.00;96923.78;5057229;28;19930;-65
2022/04/25 05:36:06;;;;;;;;;;;;;;;11.54;100.00;96929.50;5057912;28;19921;-66
2022/04/25 05:38:33;;;;;;;;;;;;;;;11.90;100.00;96928.66;5060652;28;19992;-66
2022/04/25 05:40:59;;;;;;;;;;;;;;;12.12;100.00;96927.19;5060471;28;19988;-65
2022/04/25 05:43:25;;;;;;;;;;;;;;;12.33;100.00;96931.06;5051366;28;19932;-65
2022/04/25 05:45:52;;;;;;;;;;;;;;;12.19;100.00;96924.91;5060731;28;19920;-66
2022/04/25 05:53:47;;;;;;;;;;;;;;;11.83;100.00;96941.59;5060566;28;19925;-65
2022/04/25 05:56:14;;;;;;;;;;;;;;;12.16;100.00;96952.28;5058116;28;19927;-64
2022/04/25 05:58:40;;;;;;;;;;;;;;;12.04;100.00;96943.94;5056769;28;19925;-65
2022/04/25 06:01:06;;;;;;;;;;;;;;;12.20;100.00;96955.91;5057891;28;19981;-65
2022/04/25 06:03:32;;;;;;;;;;;;;;;12.35;100.00;96966.34;5060044;28;19981;-65
2022/04/25 06:05:59;;;;;;;;;;;;;;;12.01;100.00;96965.94;5060252;28;19959;-65
2022/04/25 06:08:25;;;;;;;;;;;;;;;11.55;100.00;96968.50;5048679;28;19925;-65
2022/04/25 06:10:53;;;;;;;;;;;;;;;11.60;100.00;96971.94;5056819;28;19925;-66
2022/04/25 06:13:19;;;;;;;;;;;;;;;11.79;100.00;96972.69;5057448;28;19996;-65
2022/04/25 06:15:45;;;;;;;;;;;;;;;12.08;100.00;96971.66;5059930;28;19925;-65
2022/04/25 06:18:12;;;;;;;;;;;;;;;12.19;100.00;96983.78;5058240;28;19960;-66
2022/04/25 06:20:38;;;;;;;;;;;;;;;12.35;100.00;96985.09;5056626;28;19935;-65
2022/04/25 06:23:05;;;;;;;;;;;;;;;12.48;100.00;96986.19;5057207;28;19925;-65
2022/04/25 06:25:31;;;;;;;;;;;;;;;12.32;100.00;96988.34;5060192;28;19925;-65
2022/04/25 06:28:00;;;;;;;;;;;;;;;12.04;100.00;96984.06;5059824;28;19929;-65
2022/04/25 06:30:28;;;;;;;;;;;;;;;12.25;100.00;96993.31;5048486;28;19942;-66
2022/04/25 06:32:55;;;;;;;;;;;;;;;12.21;100.00;97003.03;5056328;28;19987;-65
2022/04/25 06:35:21;;;;;;;;;;;;;;;12.13;100.00;97001.03;5059132;28;20000;-65
2022/04/25 06:37:47;;;;;;;;;;;;;;;11.64;100.00;96996.97;5059774;28;19935;-66
2022/04/25 06:40:14;;;;;;;;;;;;;;;11.77;100.00;97008.84;5057583;28;19925;-65
2022/04/25 06:42:40;;;;;;;;;;;;;;;11.82;100.00;97016.81;5054282;28;19925;-66
2022/04/25 06:45:08;;;;;;;;;;;;;;;12.10;100.00;97006.97;5057098;28;19997;-65
2022/04/25 06:47:35;;;;;;;;;;;;;;;12.32;100.00;97012.44;5059712;28;19956;-65
2022/04/25 06:50:01;;;;;;;;;;;;;;;12.48;100.00;97011.09;5059084;28;20606;-66
2022/04/25 06:52:27;;;;;;;;;;;;;;;12.56;100.00;97014.97;5056048;28;19926;-66
2022/04/25 06:54:54;;;;;;;;;;;;;;;12.52;100.00;97017.44;5055911;28;20108;-66
2022/04/25 06:57:20;;;;;;;;;;;;;;;12.58;100.00;97024.28;5058641;28;19947;-66
2022/04/25 06:59:46;;;;;;;;;;;;;;;12.64;100.00;97023.09;5059437;28;20016;-66
2022/04/25 07:02:15;;;;;;;;;;;;;;;12.75;100.00;97035.19;5057073;28;19925;-67
2022/04/25 07:04:42;;;;;;;;;;;;;;;12.76;100.00;97028.75;5056049;28;20374;-65
2022/04/25 07:07:08;;;;;;;;;;;;;;;12.61;100.00;97038.97;5057037;28;19952;-66
2022/04/25 07:09:35;;;;;;;;;;;;;;;12.66;100.00;97038.84;5059451;28;19924;-66
2022/04/25 07:12:01;;;;;;;;;;;;;;;12.64;100.00;97035.69;5057059;28;19958;-65
2022/04/25 07:14:28;;;;;;;;;;;;;;;12.68;100.00;97042.84;5056026;28;19933;-65
2022/04/25 07:16:57;;;;;;;;;;;;;;;12.41;100.00;97048.16;5055825;28;19925;-65
2022/04/25 07:19:25;;;;;;;;;;;;;;;12.45;100.00;97060.69;5059006;28;19925;-65
2022/04/25 07:30:03;;;;;;;;;;;;;;;11.84;100.00;97058.22;5058250;28;19935;-65
2022/04/25 07:32:30;;;;;;;;;;;;;;;11.65;100.00;97060.09;5055465;28;19925;-65
2022/04/25 07:34:58;;;;;;;;;;;;;;;11.95;100.00;97068.75;5055630;28;19925;-65
2022/04/25 07:37:24;;;;;;;;;;;;;;;12.21;100.00;97068.06;5057688;28;20012;-65
2022/04/25 07:39:51;;;;;;;;;;;;;;;12.41;100.00;97061.53;5058884;28;19925;-66
2022/04/25 07:42:18;;;;;;;;;;;;;;;12.56;100.00;97065.84;5054342;28;20644;-66
2022/04/25 07:44:46;;;;;;;;;;;;;;;12.51;100.00;97066.72;5055700;28;19921;-64
2022/04/25 07:47:12;;;;;;;;;;;;;;;12.37;100.00;97073.94;5057142;28;19921;-65
2022/04/25 07:49:40;;;;;;;;;;;;;;;11.95;100.00;97076.78;5058951;28;19935;-66
2022/04/25 07:52:08;;;;;;;;;;;;;;;12.18;100.00;97079.34;5057871;28;19924;-65
2022/04/25 07:54:34;;;;;;;;;;;;;;;12.31;100.00;97083.97;5055099;28;19998;-66
2022/04/25 07:57:01;;;;;;;;;;;;;;;12.45;100.00;97090.13;5055511;28;19925;-66
2022/04/25 07:59:28;;;;;;;;;;;;;;;12.25;100.00;97095.03;5058784;28;19925;-66
2022/04/25 08:01:54;;;;;;;;;;;;;;;12.15;100.00;97090.66;5058377;28;19925;-65
2022/04/25 08:04:20;;;;;;;;;;;;;;;12.10;100.00;97096.06;5055443;28;19984;-65
2022/04/25 08:06:47;;;;;;;;;;;;;;;12.08;100.00;97097.44;5057300;28;19993;-65
2022/04/25 08:09:16;;;;;;;;;;;;;;;12.17;100.00;97101.03;5060128;28;19957;-65
2022/04/25 08:11:42;;;;;;;;;;;;;;;12.38;100.00;97105.78;5062314;28;19933;-65
2022/04/25 08:19:37;;;;;;;;;;;;;;;12.63;100.00;97103.72;5052050;28;19940;-66
2022/04/25 08:22:06;;;;;;;;;;;;;;;12.55;100.00;97109.78;5058892;28;19931;-65
2022/04/25 08:24:36;;;;;;;;;;;;;;;12.72;100.00;97121.50;5062047;28;19993;-66
2022/04/25 08:27:03;;;;;;;;;;;;;;;12.80;100.00;97128.09;5061232;28;19931;-65
2022/04/25 08:29:29;;;;;;;;;;;;;;;12.97;100.00;97120.25;5058370;28;19925;-65
2022/04/25 08:31:56;;;;;;;;;;;;;;;12.90;100.00;97128.69;5058312;28;20378;-65
2022/04/25 08:34:23;;;;;;;;;;;;;;;12.87;100.00;97131.19;5061365;28;19928;-67
2022/04/25 08:36:49;;;;;;;;;;;;;;;12.89;100.00;97132.47;5061816;28;19929;-66
2022/04/25 08:39:15;;;;;;;;;;;;;;;12.86;100.00;97138.41;5059574;28;19932;-65
2022/04/25 08:41:45;;;;;;;;;;;;;;;12.47;100.00;97137.25;5058349;28;20019;-65
2022/04/25 08:44:12;;;;;;;;;;;;;;;12.49;100.00;97143.91;5058358;28;19925;-65
2022/04/25 08:46:40;;;;;;;;;;;;;;;12.52;100.00;97143.31;5060654;28;19963;-65
2022/04/25 08:49:06;;;;;;;;;;;;;;;12.45;100.00;97146.34;5060577;28;19925;-65
2022/04/25 08:51:36;;;;;;;;;;;;;;;12.52;100.00;97145.97;5058142;28;20009;-65
2022/04/25 08:54:03;;;;;;;;;;;;;;;12.32;100.00;97139.06;5058633;28;19925;-66
2022/04/25 08:56:30;;;;;;;;;;;;;;;12.29;100.00;97145.00;5061584;28;19925;-65
2022/04/25 08:58:59;;;;;;;;;;;;;;;12.48;100.00;97144.19;5061497;28;19924;-66
2022/04/25 09:01:25;;;;;;;;;;;;;;;12.55;100.00;97152.63;5049582;28;19931;-64
2022/04/25 09:03:53;;;;;;;;;;;;;;;12.67;100.00;97148.41;5057905;28;19992;-64
2022/04/25 09:06:19;;;;;;;;;;;;;;;12.80;100.00;97158.34;5060568;28;19976;-65
2022/04/25 09:08:47;;;;;;;;;;;;;;;12.98;100.00;97162.84;5061110;28;19948;-65
2022/04/25 09:13:59;;;;;;;;;;;;;;;13.07;100.00;97160.28;5057484;28;19956;-66
2022/04/25 09:16:25;;;;;;;;;;;;;;;13.17;100.00;97162.00;5049457;28;19925;-65
2022/04/25 09:18:52;;;;;;;;;;;;;;;13.29;100.00;97159.63;5055639;28;19981;-65
2022/04/25 09:21:19;;;;;;;;;;;;;;;13.31;100.00;97162.78;5060145;28;19939;-65
2022/04/25 09:23:45;;;;;;;;;;;;;;;13.40;100.00;97171.75;5061223;28;19925;-66
2022/04/25 09:26:12;;;;;;;;;;;;;;;13.49;100.00;97167.28;5059309;28;19932;-66
2022/04/25 09:28:46;;;;;;;;;;;;;;;13.51;100.00;97173.13;5057519;28;19952;-66
2022/04/25 09:31:15;;;;;;;;;;;;;;;13.26;100.00;97174.41;5058998;28;19961;-67
2022/04/25 09:33:41;;;;;;;;;;;;;;;13.20;100.00;97180.16;5060747;28;19932;-65
2022/04/25 09:36:07;;;;;;;;;;;;;;;13.13;100.00;97187.81;5059422;28;19927;-66
2022/04/25 09:38:35;;;;;;;;;;;;;;;13.08;100.00;97193.22;5057297;28;19925;-65
2022/04/25 09:41:01;;;;;;;;;;;;;;;13.16;100.00;97190.69;5057634;28;19925;-65
2022/04/25 09:43:29;;;;;;;;;;;;;;;13.33;100.00;97195.47;5058812;28;19990;-65
2022/04/25 09:45:59;;;;;;;;;;;;;;;13.17;100.00;97191.50;5060588;28;19982;-66
2022/04/25 09:48:27;;;;;;;;;;;;;;;12.96;100.00;97191.84;5049202;28;19925;-66
2022/04/25 09:51:01;;;;;;;;;;;;;;;12.91;100.00;97189.22;5057121;28;19932;-65
2022/04/25 09:53:40;;;;;;;;;;;;;;;12.89;100.00;97199.47;5049297;28;19947;-64
2022/04/25 09:56:10;;;;;;;;;;;;;;;13.06;100.00;97198.88;5057929;28;19925;-65
2022/04/25 09:58:39;;;;;;;;;;;;;;;13.15;100.00;97199.81;5060518;28;20573;-66
2022/04/25 10:01:11;;;;;;;;;;;;;;;13.20;100.00;97197.06;5059603;28;19988;-66
2022/04/25 10:03:39;;;;;;;;;;;;;;;13.06;100.00;97200.78;5056819;28;19936;-64
2022/04/25 10:06:05;;;;;;;;;;;;;;;13.16;100.00;97200.63;5056128;28;20323;-65
2022/04/25 10:08:34;;;;;;;;;;;;;;;12.88;100.00;97208.59;5056914;28;19932;-65
2022/04/25 10:11:01;;;;;;;;;;;;;;;12.68;100.00;97202.78;5056890;28;20000;-66
2022/04/25 10:13:28;;;;;;;;;;;;;;;12.75;100.00;97206.66;5058203;28;19984;-66
2022/04/25 10:15:56;;;;;;;;;;;;;;;12.98;100.00;97208.41;5060296;28;19932;-66
2022/04/25 10:18:22;;;;;;;;;;;;;;;13.16;100.00;97216.69;5056960;28;19992;-66
2022/04/25 10:20:50;;;;;;;;;;;;;;;13.09;100.00;97209.03;5056825;28;19925;-66
2022/04/25 10:23:17;;;;;;;;;;;;;;;13.25;100.00;97215.72;5058696;28;19925;-66
2022/04/25 10:25:47;;;;;;;;;;;;;;;13.37;100.00;97212.53;5058894;28;19929;-66
2022/04/25 10:28:14;;;;;;;;;;;;;;;13.41;100.00;97216.22;5057698;28;19952;-67
2022/04/25 10:30:46;;;;;;;;;;;;;;;13.38;100.00;97214.94;5056577;28;19929;-66
2022/04/25 10:33:16;;;;;;;;;;;;;;;13.50;100.00;97211.75;5058176;28;20008;-65
2022/04/25 10:35:43;;;;;;;;;;;;;;;13.31;100.00;97214.53;5059979;28;19925;-66
2022/04/25 10:38:47;;;;;;;;;;;;;;;13.66;100.00;97205.00;5058490;28;19946;-66
2022/04/25 10:44:13;;;;;;;;;;;;;;;13.53;100.00;97216.53;5056926;28;19933;-65
2022/04/25 10:46:57;;;;;;;;;;;;;;;13.83;100.00;97215.91;5056292;28;19988;-66
2022/04/25 10:49:28;;;;;;;;;;;;;;;13.83;100.00;97215.91;5059437;28;19984;-66
2022/04/25 10:51:54;;;;;;;;;;;;;;;13.83;100.00;97213.22;5059530;28;19946;-66
2022/04/25 10:54:23;;;;;;;;;;;;;;;13.73;100.00;97224.19;5055674;28;19988;-66
2022/04/25 10:57:15;;;;;;;;;;;;;;;13.81;100.00;97226.16;5056134;28;19921;-67
2022/04/25 10:59:42;;;;;;;;;;;;;;;13.84;100.00;97224.75;5050012;28;19925;-66
2022/04/25 11:02:20;;;;;;;;;;;;;;;13.78;100.00;97234.81;5056927;28;19921;-66
2022/04/25 11:04:47;;;;;;;;;;;;;;;13.73;100.00;97236.81;5059215;28;19948;-67
2022/04/25 11:07:20;;;;;;;;;;;;;;;13.65;100.00;97242.88;5057362;28;19924;-66
2022/04/25 11:09:47;;;;;;;;;;;;;;;13.63;100.00;97247.72;5054170;28;23380;-67
2022/04/25 11:12:15;;;;;;;;;;;;;;;13.69;100.00;97254.59;5057448;28;19925;-65
2022/04/25 11:14:56;;;;;;;;;;;;;;;13.64;100.00;97252.00;5059346;28;19931;-65
2022/04/25 11:17:22;;;;;;;;;;;;;;;13.37;100.00;97255.44;5056200;28;19953;-66
2022/04/25 11:19:51;;;;;;;;;;;;;;;13.16;100.00;97265.75;5055831;28;19925;-66
2022/04/25 11:22:28;;;;;;;;;;;;;;;13.07;100.00;97261.31;5058288;28;19982;-66
2022/04/25 11:24:55;;;;;;;;;;;;;;;13.22;100.00;97269.94;5059047;28;19925;-67
2022/04/25 11:27:23;;;;;;;;;;;;;;;13.27;100.00;97269.06;5056047;28;19936;-66
2022/04/25 11:30:13;;;;;;;;;;;;;;;13.32;100.00;97274.31;5055564;28;19924;-65
2022/04/25 11:32:43;;;;;;;;;;;;;;;13.43;100.00;97271.16;5049229;28;20009;-67
2022/04/25 11:35:10;;;;;;;;;;;;;;;13.55;100.00;97277.94;5056914;28;19932;-65
2022/04/25 11:37:36;;;;;;;;;;;;;;;13.35;100.00;97279.09;5059172;28;19993;-66
2022/04/25 11:40:04;;;;;;;;;;;;;;;13.50;100.00;97278.81;5057805;28;19964;-66
2022/04/25 11:42:33;;;;;;;;;;;;;;;13.62;100.00;97275.63;5053025;28;19946;-66
2022/04/25 11:45:00;;;;;;;;;;;;;;;13.63;100.00;97279.91;5055294;28;19967;-66
2022/04/25 11:47:26;;;;;;;;;;;;;;;13.41;100.00;97284.06;5047459;28;19985;-66
2022/04/25 11:49:56;;;;;;;;;;;;;;;13.58;100.00;97288.88;5055320;28;19965;-66
2022/04/25 11:52:22;;;;;;;;;;;;;;;13.57;100.00;97292.63;5058244;28;19931;-65
2022/04/25 11:54:49;;;;;;;;;;;;;;;13.51;100.00;97294.63;5058808;28;19947;-66
2022/04/25 11:57:15;;;;;;;;;;;;;;;13.58;100.00;97299.59;5056687;28;19984;-66
2022/04/25 11:59:43;;;;;;;;;;;;;;;13.62;100.00;97295.22;5055224;28;20022;-66
2022/04/25 12:02:10;;;;;;;;;;;;;;;13.79;100.00;97294.63;5055914;28;19946;-66
2022/04/25 12:04:37;;;;;;;;;;;;;;;13.83;100.00;97301.00;5057822;28;19932;-66
2022/04/25 12:07:05;;;;;;;;;;;;;;;13.79;100.00;97305.38;5057034;27;19925;-66
2022/04/25 12:17:49;;;;;;;;;;;;;;;14.05;100.00;97301.88;5054686;28;19929;-66
2022/04/25 12:20:16;;;;;;;;;;;;;;;14.11;100.00;97310.66;5056939;28;19946;-67
2022/04/25 12:22:51;;;;;;;;;;;;;;;14.13;100.00;97300.41;5056170;28;20504;-65
2022/04/25 12:25:19;;;;;;;;;;;;;;;14.08;100.00;97295.91;5054071;28;19959;-66
2022/04/25 12:28:05;;;;;;;;;;;;;;;14.24;100.00;97300.97;5053305;28;19925;-66
2022/04/25 12:30:43;;;;;;;;;;;;;;;14.38;100.00;97299.91;5045902;28;19994;-67
2022/04/25 12:33:10;;;;;;;;;;;;;;;14.50;100.00;97307.41;5054546;28;20016;-66
2022/04/25 12:35:37;;;;;;;;;;;;;;;14.61;100.00;97305.31;5056969;28;20012;-66
2022/04/25 12:38:03;;;;;;;;;;;;;;;14.46;100.00;97312.59;5056668;28;19963;-67
2022/04/25 12:40:30;;;;;;;;;;;;;;;14.46;100.00;97309.91;5053590;28;19931;-65
2022/04/25 12:42:57;;;;;;;;;;;;;;;14.68;100.00;97300.28;5051134;28;19950;-66
2022/04/25 12:45:24;;;;;;;;;;;;;;;14.51;100.00;97307.09;5056969;28;19996;-67
2022/04/25 12:47:56;;;;;;;;;;;;;;;14.59;100.00;97310.97;5057735;28;19924;-66
2022/04/25 12:50:41;;;;;;;;;;;;;;;14.43;100.00;97307.03;5054075;28;19936;-66
2022/04/25 12:53:08;;;;;;;;;;;;;;;14.28;100.00;97307.31;5056383;28;19949;-67
2022/04/25 12:55:45;;;;;;;;;;;;;;;14.50;100.00;97304.75;5059772;28;20019;-66
2022/04/25 12:58:11;;;;;;;;;;;;;;;14.55;100.00;97307.28;5056698;28;19945;-65
2022/04/25 13:00:41;;;;;;;;;;;;;;;14.61;100.00;97305.31;5055797;28;19931;-66
2022/04/25 13:03:10;;;;;;;;;;;;;;;14.42;100.00;97311.59;5056529;28;19929;-66
2022/04/25 13:05:37;;;;;;;;;;;;;;;14.41;98.16;97311.91;5059337;28;19931;-66
2022/04/25 13:08:04;;;;;;;;;;;;;;;14.35;100.00;97302.38;5058739;28;19988;-65
2022/04/25 13:10:30;;;;;;;;;;;;;;;14.32;100.00;97311.00;5055880;28;19929;-67
2022/04/25 13:12:57;;;;;;;;;;;;;;;14.41;100.00;97306.53;5061300;28;19967;-66
2022/04/25 13:15:25;;;;;;;;;;;;;;;14.32;100.00;97302.94;5056022;28;19990;-66
2022/04/25 13:17:54;;;;;;;;;;;;;;;14.32;100.00;97303.75;5055999;28;19975;-65
2022/04/25 13:20:23;;;;;;;;;;;;;;;14.25;100.00;97303.38;5058335;28;19929;-65